createdAt,value
2023-04-28T00:01:14.748Z,9.03
2023-04-28T00:03:43.162Z,7.70
2023-04-28T00:06:12.352Z,7.57
2023-04-28T00:08:40.595Z,7.10
2023-04-28T00:11:10.985Z,6.77
2023-04-28T00:13:39.340Z,6.93
2023-04-28T00:16:12.222Z,6.67
2023-04-28T00:18:40.421Z,6.40
2023-04-28T00:21:08.658Z,6.27
2023-04-28T00:23:36.894Z,6.33
2023-04-28T00:26:05.136Z,6.80
2023-04-28T00:28:34.492Z,7.57
2023-04-28T00:31:03.358Z,6.30
2023-04-28T00:33:33.193Z,6.83
2023-04-28T00:36:01.947Z,6.53
2023-04-28T00:38:30.176Z,5.30
2023-04-28T00:40:58.399Z,5.43
2023-04-28T00:43:26.572Z,6.07
2023-04-28T00:45:54.985Z,6.30
2023-04-28T00:48:23.872Z,6.80
2023-04-28T00:50:53.537Z,5.90
2023-04-28T00:53:22.106Z,5.50
2023-04-28T00:55:50.926Z,5.63
2023-04-28T00:58:19.107Z,5.80
2023-04-28T01:00:47.329Z,5.13
2023-04-28T01:03:16.427Z,4.90
2023-04-28T01:05:44.676Z,4.50
2023-04-28T01:08:14.264Z,4.30
2023-04-28T01:10:45.737Z,4.60
2023-04-28T01:13:13.900Z,3.70
2023-04-28T01:15:42.445Z,3.73
2023-04-28T01:18:10.724Z,4.30
2023-04-28T01:20:38.900Z,3.67
2023-04-28T01:23:07.049Z,4.33
2023-04-28T01:25:36.626Z,4.70
2023-04-28T01:28:04.841Z,4.50
2023-04-28T01:30:33.065Z,4.57
2023-04-28T01:33:01.411Z,4.67
2023-04-28T01:35:29.784Z,5.00
2023-04-28T01:37:58.039Z,4.90
2023-04-28T01:40:26.306Z,5.07
2023-04-28T01:42:55.811Z,5.50
2023-04-28T01:45:24.020Z,4.03
2023-04-28T01:47:52.315Z,4.43
2023-04-28T01:50:20.739Z,5.03
2023-04-28T01:52:48.906Z,5.30
2023-04-28T01:55:17.209Z,5.00
2023-04-28T01:57:45.465Z,5.23
2023-04-28T02:00:15.426Z,5.27
2023-04-28T02:02:43.749Z,4.33
2023-04-28T02:05:12.082Z,5.37
2023-04-28T02:07:40.398Z,4.43
2023-04-28T02:10:09.492Z,5.03
2023-04-28T02:12:37.752Z,5.10
2023-04-28T02:15:06.365Z,5.27
2023-04-28T02:17:36.078Z,4.40
2023-04-28T02:20:05.056Z,4.00
2023-04-28T02:22:33.253Z,4.43
2023-04-28T02:25:01.470Z,4.50
2023-04-28T02:27:29.713Z,4.27
2023-04-28T02:29:57.926Z,4.53
2023-04-28T02:32:26.182Z,4.97
2023-04-28T02:34:56.426Z,4.57
2023-04-28T02:37:24.699Z,3.43
2023-04-28T02:39:53.325Z,4.37
2023-04-28T02:42:21.479Z,4.50
2023-04-28T02:44:49.746Z,4.03
2023-04-28T02:47:17.921Z,4.60
2023-04-28T02:49:46.294Z,5.40
2023-04-28T02:52:15.890Z,5.00
2023-04-28T02:54:44.130Z,4.60
2023-04-28T02:57:12.364Z,5.47
2023-04-28T02:59:40.854Z,5.10
2023-04-28T03:02:09.319Z,5.07
2023-04-28T03:04:37.541Z,5.23
2023-04-28T03:07:06.082Z,5.27
2023-04-28T03:09:36.021Z,5.27
2023-04-28T03:12:04.388Z,4.20
2023-04-28T03:14:32.535Z,4.50
2023-04-28T03:17:00.696Z,5.13
2023-04-28T03:19:28.933Z,5.00
2023-04-28T03:21:57.141Z,5.20
2023-04-28T03:24:25.417Z,5.27
2023-04-28T03:26:55.013Z,5.17
2023-04-28T03:29:24.672Z,5.70
2023-04-28T03:31:52.974Z,6.07
2023-04-28T03:34:21.248Z,4.90
2023-04-28T03:36:49.439Z,4.90
2023-04-28T03:39:17.652Z,5.97
2023-04-28T03:41:45.811Z,6.00
2023-04-28T03:44:15.718Z,5.40
2023-04-28T03:46:44.008Z,5.83
2023-04-28T03:49:12.400Z,5.63
2023-04-28T03:51:40.967Z,6.07
2023-04-28T03:54:09.219Z,6.90
2023-04-28T03:56:37.505Z,5.73
2023-04-28T03:59:05.816Z,6.67
2023-04-28T04:01:35.963Z,6.03
2023-04-28T04:04:04.394Z,5.90
2023-04-28T04:06:33.215Z,6.60
2023-04-28T04:09:01.563Z,5.50
2023-04-28T04:11:29.768Z,4.40
2023-04-28T04:13:58.004Z,4.47
2023-04-28T04:16:26.297Z,4.80
2023-04-28T04:18:56.285Z,4.30
2023-04-28T04:21:24.509Z,4.73
2023-04-28T04:23:52.679Z,4.80
2023-04-28T04:26:20.953Z,5.20
2023-04-28T04:28:49.153Z,6.83
2023-04-28T04:31:18.288Z,6.50
2023-04-28T04:33:46.760Z,6.10
2023-04-28T04:36:16.448Z,4.60
2023-04-28T04:38:44.627Z,4.80
2023-04-28T04:41:12.840Z,3.80
2023-04-28T04:43:41.267Z,5.87
2023-04-28T04:46:20.751Z,4.50
2023-04-28T04:48:48.988Z,5.60
2023-04-28T04:51:18.539Z,4.97
2023-04-28T04:53:46.791Z,4.80
2023-04-28T04:56:15.053Z,6.63
2023-04-28T04:58:45.210Z,7.00
2023-04-28T05:01:13.455Z,6.70
2023-04-28T05:03:42.753Z,8.30
2023-04-28T05:06:11.540Z,7.67
2023-04-28T05:08:41.134Z,7.00
2023-04-28T05:11:09.399Z,7.50
2023-04-28T05:13:37.631Z,7.70
2023-04-28T05:16:06.255Z,9.83
2023-04-28T05:18:35.934Z,7.40
2023-04-28T05:21:04.217Z,8.70
2023-04-28T05:23:32.443Z,7.70
2023-04-28T05:26:03.109Z,7.93
2023-04-28T05:28:31.548Z,7.57
2023-04-28T05:30:59.788Z,8.27
2023-04-28T05:33:27.946Z,6.77
2023-04-28T05:35:56.327Z,7.50
2023-04-28T05:38:24.530Z,7.37
2023-04-28T05:40:52.746Z,7.83
2023-04-28T05:43:22.296Z,6.33
2023-04-28T05:45:50.649Z,5.80
2023-04-28T05:48:18.873Z,8.57
2023-04-28T05:50:47.119Z,5.03
2023-04-28T05:53:15.329Z,5.80
2023-04-28T05:55:43.602Z,5.63
2023-04-28T05:58:11.907Z,7.00
2023-04-28T06:00:41.490Z,8.10
2023-04-28T06:03:11.380Z,8.30
2023-04-28T06:05:40.011Z,8.83
2023-04-28T06:08:08.782Z,8.20
2023-04-28T06:10:37.029Z,8.70
2023-04-28T06:13:06.588Z,8.80
2023-04-28T06:15:34.950Z,9.43
2023-04-28T06:18:06.157Z,9.97
2023-04-28T06:20:34.574Z,9.20
2023-04-28T06:23:03.265Z,10.17
2023-04-28T06:25:31.488Z,10.40
2023-04-28T06:27:59.675Z,10.57
2023-04-28T06:30:27.993Z,9.63
2023-04-28T06:32:57.744Z,10.27
2023-04-28T06:35:27.526Z,9.57
2023-04-28T06:37:55.767Z,8.83
2023-04-28T06:40:23.960Z,9.33
2023-04-28T06:42:52.263Z,9.80
2023-04-28T06:45:20.597Z,8.13
2023-04-28T06:47:48.853Z,10.53
2023-04-28T06:50:17.207Z,9.30
2023-04-28T06:52:46.718Z,7.33
2023-04-28T06:55:17.265Z,6.00
2023-04-28T06:57:45.616Z,5.40
2023-04-28T07:00:14.256Z,5.60
2023-04-28T07:02:42.510Z,5.50
2023-04-28T07:05:10.986Z,6.40
2023-04-28T07:07:39.682Z,5.27
2023-04-28T07:10:10.594Z,6.50
2023-04-28T07:12:38.806Z,5.97
2023-04-28T07:15:08.473Z,6.00
2023-04-28T07:17:38.264Z,5.30
2023-04-28T07:20:07.059Z,6.23
2023-04-28T07:22:35.303Z,6.27
2023-04-28T07:25:04.686Z,5.10
2023-04-28T07:27:34.314Z,5.17
2023-04-28T07:30:09.025Z,4.30
2023-04-28T07:32:47.266Z,5.03
2023-04-28T07:35:15.528Z,4.50
2023-04-28T07:37:43.950Z,4.80
2023-04-28T07:40:12.436Z,5.47
2023-04-28T07:42:42.008Z,4.87
2023-04-28T07:45:10.778Z,4.87
2023-04-28T07:47:39.042Z,5.47
2023-04-28T07:50:07.810Z,5.50
2023-04-28T07:52:36.014Z,4.77
2023-04-28T07:55:04.302Z,6.07
2023-04-28T07:57:32.586Z,4.90
2023-04-28T08:00:02.163Z,5.57
2023-04-28T08:02:30.588Z,6.23
2023-04-28T08:04:59.317Z,5.17
2023-04-28T08:07:27.762Z,5.40
2023-04-28T08:09:56.003Z,5.90
2023-04-28T08:12:24.223Z,6.07
2023-04-28T08:14:52.456Z,4.50
2023-04-28T08:17:22.044Z,4.40
2023-04-28T08:19:50.408Z,4.20
2023-04-28T08:22:18.634Z,4.07
2023-04-28T08:24:47.780Z,4.23
2023-04-28T08:27:15.970Z,3.57
2023-04-28T08:29:44.231Z,3.53
2023-04-28T08:32:12.425Z,3.10
2023-04-28T08:34:42.032Z,3.93
2023-04-28T08:37:10.245Z,4.53
2023-04-28T08:39:38.427Z,4.30
2023-04-28T08:42:06.827Z,2.90
2023-04-28T08:44:38.469Z,4.30
2023-04-28T08:47:12.349Z,3.67
2023-04-28T08:49:42.258Z,4.57
2023-04-28T08:52:12.576Z,5.50
2023-04-28T08:54:41.541Z,4.47
2023-04-28T08:57:10.400Z,4.30
2023-04-28T08:59:42.095Z,3.83
2023-04-28T09:02:10.780Z,5.10
2023-04-28T09:04:39.493Z,5.00
2023-04-28T09:07:13.868Z,4.70
2023-04-28T09:09:42.772Z,4.87
2023-04-28T09:12:11.262Z,4.57
2023-04-28T09:14:40.089Z,4.37
2023-04-28T09:17:12.778Z,4.43
2023-04-28T09:19:42.892Z,4.27
2023-04-28T09:22:25.664Z,5.53
2023-04-28T09:24:56.324Z,6.13
2023-04-28T09:27:28.871Z,5.70
2023-04-28T09:29:57.230Z,5.03
2023-04-28T09:32:27.682Z,4.30
2023-04-28T09:34:57.588Z,3.13
2023-04-28T09:37:27.220Z,4.80
2023-04-28T09:39:57.035Z,4.97
2023-04-28T09:42:35.097Z,4.97
2023-04-28T09:45:03.617Z,5.40
2023-04-28T09:47:33.459Z,6.67
2023-04-28T09:50:02.652Z,6.40
2023-04-28T09:52:30.953Z,6.37
2023-04-28T09:55:00.511Z,6.50
2023-04-28T09:57:31.470Z,6.87
2023-04-28T10:00:00.020Z,7.30
2023-04-28T10:05:02.312Z,5.87
2023-04-28T10:07:34.939Z,7.13
2023-04-28T10:10:05.535Z,8.30
2023-04-28T10:12:34.851Z,7.73
2023-04-28T10:15:03.692Z,7.63
2023-04-28T10:17:32.982Z,7.47
2023-04-28T10:20:01.938Z,7.80
2023-04-28T10:22:39.460Z,9.77
2023-04-28T10:25:28.029Z,8.70
2023-04-28T10:27:56.415Z,8.63
2023-04-28T10:30:28.697Z,8.30
2023-04-28T10:33:18.300Z,7.73
2023-04-28T10:35:47.920Z,8.17
2023-04-28T10:38:17.133Z,8.70
2023-04-28T10:40:47.061Z,7.63
2023-04-28T10:43:15.799Z,7.80
2023-04-28T10:46:03.821Z,7.30
2023-04-28T10:48:50.521Z,9.07
2023-04-28T10:51:39.836Z,9.57
2023-04-28T10:54:21.221Z,8.60
2023-04-28T10:57:20.014Z,7.97
2023-04-28T10:59:50.344Z,9.93
2023-04-28T11:02:43.921Z,9.57
2023-04-28T11:05:14.179Z,6.90
2023-04-28T11:07:42.762Z,3.50
2023-04-28T11:10:10.987Z,5.80
2023-04-28T11:12:59.155Z,7.30
2023-04-28T11:15:29.205Z,9.00
2023-04-28T11:17:59.415Z,10.33
2023-04-28T11:20:28.824Z,10.13
2023-04-28T11:22:56.994Z,10.67
2023-04-28T11:25:25.306Z,9.20
2023-04-28T11:27:53.534Z,9.17
2023-04-28T11:30:22.917Z,10.33
2023-04-28T11:32:52.648Z,9.53
2023-04-28T11:35:20.965Z,11.17
2023-04-28T11:37:49.195Z,13.10
2023-04-28T11:40:18.011Z,8.63
2023-04-28T11:42:49.415Z,12.80
2023-04-28T11:45:17.722Z,9.87
2023-04-28T11:47:45.945Z,10.23
2023-04-28T11:50:16.065Z,9.90
2023-04-28T11:52:52.487Z,9.43
2023-04-28T11:55:21.864Z,9.80
2023-04-28T11:57:50.083Z,2.37
2023-04-28T12:00:21.982Z,8.80
2023-04-28T12:02:50.823Z,6.40
2023-04-28T12:05:22.175Z,4.97
2023-04-28T12:07:50.518Z,7.30
2023-04-28T12:10:19.692Z,6.30
2023-04-28T12:12:52.777Z,4.60
2023-04-28T12:15:22.877Z,2.30
2023-04-28T12:17:51.935Z,4.40
2023-04-28T12:23:13.901Z,4.40
2023-04-28T12:25:45.667Z,4.03
2023-04-28T12:28:14.350Z,5.10
2023-04-28T12:30:43.455Z,5.23
2023-04-28T12:33:24.406Z,4.70
2023-04-28T12:35:53.710Z,5.30
2023-04-28T12:38:23.267Z,3.57
2023-04-28T12:40:51.470Z,3.27
2023-04-28T12:43:21.050Z,3.27
2023-04-28T12:45:49.374Z,3.03
2023-04-28T12:48:17.666Z,3.40
2023-04-28T12:50:46.098Z,3.50
2023-04-28T12:53:14.389Z,2.73
2023-04-28T12:55:44.042Z,2.43
2023-04-28T12:58:12.343Z,1.80
2023-04-28T13:00:41.892Z,2.30
2023-04-28T13:03:10.313Z,3.20
2023-04-28T13:05:38.786Z,3.70
2023-04-28T13:08:07.142Z,2.60
2023-04-28T13:10:35.389Z,2.87
2023-04-28T13:13:05.344Z,2.33
2023-04-28T13:15:33.527Z,2.60
2023-04-28T13:18:01.798Z,2.43
2023-04-28T13:20:30.055Z,2.30
2023-04-28T13:22:58.239Z,2.90
2023-04-28T13:25:26.540Z,1.97
2023-04-28T13:27:54.808Z,1.90
2023-04-28T13:30:24.355Z,3.00
2023-04-28T13:32:54.117Z,2.13
2023-04-28T13:35:23.191Z,1.80
2023-04-28T13:37:55.833Z,2.47
2023-04-28T13:40:24.111Z,2.30
2023-04-28T13:42:52.329Z,1.70
2023-04-28T13:45:22.036Z,2.30
2023-04-28T13:47:52.732Z,1.47
2023-04-28T13:50:21.012Z,1.40
2023-04-28T13:52:49.205Z,1.10
2023-04-28T13:55:17.492Z,1.73
2023-04-28T13:57:45.708Z,2.07
2023-04-28T14:00:14.460Z,1.57
2023-04-28T14:02:43.420Z,2.20
2023-04-28T14:05:13.698Z,1.97
2023-04-28T14:07:41.920Z,1.83
2023-04-28T14:10:11.061Z,2.90
2023-04-28T14:12:39.514Z,1.27
2023-04-28T14:15:08.186Z,2.77
2023-04-28T14:17:36.578Z,2.70
2023-04-28T14:20:05.499Z,2.13
2023-04-28T14:22:35.058Z,2.77
2023-04-28T14:25:03.241Z,2.10
2023-04-28T14:27:33.037Z,2.40
2023-04-28T14:30:01.939Z,1.80
2023-04-28T14:32:30.443Z,2.10
2023-04-28T14:34:58.806Z,1.70
2023-04-28T14:37:28.327Z,1.60
2023-04-28T14:39:58.047Z,1.50
2023-04-28T14:42:29.542Z,1.47
2023-04-28T14:44:57.953Z,1.50
2023-04-28T14:47:26.799Z,1.10
2023-04-28T14:49:55.536Z,1.40
2023-04-28T14:52:25.194Z,1.27
2023-04-28T14:54:53.744Z,1.60
2023-04-28T14:57:23.276Z,1.77
2023-04-28T14:59:52.421Z,1.43
2023-04-28T15:02:21.604Z,1.30
2023-04-28T15:04:50.289Z,1.30
2023-04-28T15:07:18.757Z,1.23
2023-04-28T15:09:46.942Z,1.53
2023-04-28T15:12:15.260Z,1.23
2023-04-28T15:14:44.793Z,1.70
2023-04-28T15:17:13.036Z,1.80
2023-04-28T15:19:41.221Z,1.80
2023-04-28T15:22:09.434Z,1.33
2023-04-28T15:24:37.933Z,1.87
2023-04-28T15:27:06.122Z,0.97
2023-04-28T15:29:34.325Z,2.00
2023-04-28T15:32:03.923Z,2.20
2023-04-28T15:34:32.293Z,2.30
2023-04-28T15:37:01.320Z,2.73
2023-04-28T15:39:29.621Z,2.47
2023-04-28T15:41:58.879Z,2.07
2023-04-28T15:44:28.064Z,2.97
2023-04-28T15:46:58.225Z,2.70
2023-04-28T15:49:27.762Z,2.50
2023-04-28T15:51:55.934Z,2.90
2023-04-28T15:54:24.075Z,2.43
2023-04-28T15:56:52.461Z,2.70
2023-04-28T15:59:20.662Z,2.40
2023-04-28T16:01:48.946Z,1.90
2023-04-28T16:04:17.203Z,2.50
2023-04-28T16:06:47.235Z,1.87
2023-04-28T16:09:15.439Z,1.50
2023-04-28T16:11:43.694Z,1.43
2023-04-28T16:14:11.976Z,1.63
2023-04-28T16:16:40.290Z,1.60
2023-04-28T16:19:08.489Z,1.70
2023-04-28T16:21:36.715Z,1.80
2023-04-28T16:24:06.619Z,1.93
2023-04-28T16:26:34.796Z,1.50
2023-04-28T16:29:03.138Z,1.53
2023-04-28T16:31:32.587Z,2.00
2023-04-28T16:34:00.895Z,1.70
2023-04-28T16:36:32.921Z,1.57
2023-04-28T16:39:01.266Z,1.70
2023-04-28T16:41:31.044Z,1.20
2023-04-28T16:43:59.565Z,1.03
2023-04-28T16:46:27.928Z,1.70
2023-04-28T16:48:56.193Z,1.60
2023-04-28T16:51:24.411Z,1.47
2023-04-28T16:53:52.838Z,1.73
2023-04-28T16:56:21.784Z,1.70
2023-04-28T16:58:51.344Z,1.60
2023-04-28T17:01:19.529Z,1.17
2023-04-28T17:03:47.931Z,1.40
2023-04-28T17:06:16.279Z,1.40
2023-04-28T17:08:44.470Z,1.50
2023-04-28T17:11:18.087Z,1.37
2023-04-28T17:13:46.345Z,1.70
2023-04-28T17:16:16.226Z,1.60
2023-04-28T17:18:44.964Z,1.20
2023-04-28T17:21:13.179Z,1.30
2023-04-28T17:23:41.465Z,1.40
2023-04-28T17:26:09.685Z,1.43
2023-04-28T17:28:37.883Z,1.50
2023-04-28T17:31:06.783Z,1.50
2023-04-28T17:33:36.849Z,1.30
2023-04-28T17:36:05.330Z,1.30
2023-04-28T17:38:33.661Z,1.13
2023-04-28T17:41:01.927Z,1.90
2023-04-28T17:43:30.419Z,1.80
2023-04-28T17:45:58.591Z,2.03
2023-04-28T17:48:26.815Z,1.60
2023-04-28T17:50:56.727Z,1.90
2023-04-28T17:53:24.916Z,1.77
2023-04-28T17:55:53.108Z,1.50
2023-04-28T17:58:22.346Z,1.43
2023-04-28T18:00:50.696Z,1.50
2023-04-28T18:03:19.052Z,2.10
2023-04-28T18:05:47.557Z,2.23
2023-04-28T18:08:17.110Z,1.33
2023-04-28T18:10:45.397Z,2.03
2023-04-28T18:13:13.657Z,1.90
2023-04-28T18:15:42.009Z,1.83
2023-04-28T18:18:10.785Z,1.50
2023-04-28T18:20:38.996Z,1.97
2023-04-28T18:23:08.857Z,1.43
2023-04-28T18:25:38.640Z,2.17
2023-04-28T18:28:07.996Z,1.10
2023-04-28T18:30:38.206Z,2.30
2023-04-28T18:33:06.487Z,1.53
2023-04-28T18:35:34.771Z,2.90
2023-04-28T18:38:02.990Z,2.73
2023-04-28T18:40:34.016Z,1.90
2023-04-28T18:43:03.623Z,1.93
2023-04-28T18:45:33.257Z,2.27
2023-04-28T18:48:02.252Z,2.87
2023-04-28T18:50:30.698Z,1.87
2023-04-28T18:52:59.000Z,3.83
2023-04-28T18:55:27.332Z,2.63
2023-04-28T18:57:55.769Z,2.50
2023-04-28T19:00:25.519Z,1.97
2023-04-28T19:02:53.888Z,2.57
2023-04-28T19:05:22.347Z,2.10
2023-04-28T19:07:50.708Z,2.50
2023-04-28T19:10:19.087Z,2.70
2023-04-28T19:12:47.299Z,2.30
2023-04-28T19:15:15.485Z,2.20
2023-04-28T19:17:45.356Z,2.27
2023-04-28T19:20:14.431Z,2.23
2023-04-28T19:22:43.883Z,1.57
2023-04-28T19:25:16.811Z,2.17
2023-04-28T19:27:45.445Z,1.93
2023-04-28T19:30:15.004Z,1.70
2023-04-28T19:32:44.720Z,1.67
2023-04-28T19:35:13.222Z,1.50
2023-04-28T19:37:41.826Z,1.33
2023-04-28T19:40:10.590Z,1.30
2023-04-28T19:42:38.740Z,1.30
2023-04-28T19:45:07.524Z,1.77
2023-04-28T19:47:36.932Z,1.77
2023-04-28T19:50:06.917Z,1.77
2023-04-28T19:52:35.215Z,2.03
2023-04-28T19:55:03.990Z,1.90
2023-04-28T19:57:32.425Z,1.60
2023-04-28T20:00:00.747Z,1.63
2023-04-28T20:02:33.010Z,1.90
2023-04-28T20:05:01.268Z,1.80
2023-04-28T20:07:31.052Z,1.90
2023-04-28T20:09:59.752Z,2.17
2023-04-28T20:12:29.782Z,2.43
2023-04-28T20:14:57.984Z,2.77
2023-04-28T20:17:26.296Z,3.10
2023-04-28T20:19:54.466Z,2.97
2023-04-28T20:22:22.752Z,3.13
2023-04-28T20:24:52.279Z,2.60
2023-04-28T20:27:21.184Z,1.73
2023-04-28T20:29:49.649Z,3.10
2023-04-28T20:32:18.082Z,2.40
2023-04-28T20:34:46.286Z,1.97
2023-04-28T20:37:15.148Z,3.40
2023-04-28T20:39:43.346Z,2.70
2023-04-28T20:42:13.097Z,3.27
2023-04-28T20:44:42.417Z,3.20
2023-04-28T20:47:10.912Z,3.60
2023-04-28T20:49:39.139Z,2.83
2023-04-28T20:52:07.447Z,3.00
2023-04-28T20:54:36.518Z,3.77
2023-04-28T20:57:05.015Z,3.67
2023-04-28T20:59:35.556Z,3.40
2023-04-28T21:02:03.854Z,3.20
2023-04-28T21:04:32.112Z,2.53
2023-04-28T21:07:00.304Z,4.00
2023-04-28T21:09:28.483Z,3.93
2023-04-28T21:11:56.656Z,4.07
2023-04-28T21:14:24.900Z,5.10
2023-04-28T21:16:54.764Z,5.00
2023-04-28T21:19:23.452Z,4.80
2023-04-28T21:21:51.659Z,3.27
2023-04-28T21:24:20.754Z,4.30
2023-04-28T21:26:49.089Z,4.90
2023-04-28T21:29:18.326Z,4.33
2023-04-28T21:31:47.209Z,4.70
2023-04-28T21:34:16.942Z,4.80
2023-04-28T21:36:45.161Z,5.07
2023-04-28T21:39:13.418Z,5.63
2023-04-28T21:41:42.305Z,5.60
2023-04-28T21:44:10.881Z,6.60
2023-04-28T21:46:39.160Z,7.13
2023-04-28T21:49:07.732Z,6.50
2023-04-28T21:51:37.657Z,7.03
2023-04-28T21:54:05.990Z,5.57
2023-04-28T21:56:34.225Z,7.97
2023-04-28T21:59:03.156Z,7.13
2023-04-28T22:01:32.017Z,6.17
2023-04-28T22:04:00.828Z,8.07
2023-04-28T22:06:29.282Z,3.20
2023-04-28T22:08:59.149Z,4.90
2023-04-28T22:11:28.130Z,10.87
2023-04-28T22:13:56.503Z,4.97
2023-04-28T22:16:24.869Z,3.50
2023-04-28T22:18:53.144Z,5.00
2023-04-28T22:21:21.459Z,5.67
2023-04-28T22:23:49.780Z,3.27
2023-04-28T22:26:20.766Z,8.57
2023-04-28T22:28:48.967Z,7.33
2023-04-28T22:31:17.518Z,5.37
2023-04-28T22:33:45.797Z,10.40
2023-04-28T22:36:13.985Z,10.10
2023-04-28T22:38:42.244Z,12.30
2023-04-28T22:41:10.466Z,10.50
2023-04-28T22:43:40.128Z,13.40
2023-04-28T22:46:08.802Z,12.60
2023-04-28T22:48:37.097Z,12.17
2023-04-28T22:51:05.403Z,11.20
2023-04-28T22:53:33.621Z,12.27
2023-04-28T22:56:03.105Z,13.30
2023-04-28T22:58:31.384Z,12.47
2023-04-28T23:01:04.232Z,11.20
2023-04-28T23:03:32.727Z,12.17
2023-04-28T23:06:01.113Z,14.60
2023-04-28T23:08:29.378Z,17.77
2023-04-28T23:10:57.694Z,14.97
2023-04-28T23:13:25.944Z,16.50
2023-04-28T23:15:54.126Z,13.80
2023-04-28T23:18:23.792Z,9.13
2023-04-28T23:20:52.030Z,17.23
2023-04-28T23:23:20.247Z,11.77
2023-04-28T23:25:48.903Z,16.63
2023-04-28T23:28:17.092Z,8.00
2023-04-28T23:30:45.379Z,16.93
2023-04-28T23:33:13.580Z,10.00
2023-04-28T23:35:43.635Z,10.10
2023-04-28T23:38:12.311Z,7.17
2023-04-28T23:40:41.276Z,12.63
2023-04-28T23:43:09.541Z,8.27
2023-04-28T23:45:37.771Z,5.20
2023-04-28T23:48:06.807Z,9.43
2023-04-28T23:50:34.979Z,14.60
2023-04-28T23:53:05.348Z,11.30
2023-04-28T23:55:33.586Z,13.97
2023-04-28T23:58:01.781Z,11.57
